Time;durP1;ratioP1;P1;durP2;ratioP2;P2;SDS_P1;SDS_P2;PMS_P1;PMS_P2;Temp;Humidity;BMP_temperature;BMP_pressure;BME280_temperature;BME280_humidity;BME280_pressure;Samples;Min_cycle;Max_cycle;Signal;HPM_P1;HPM_P2
2022/03/15 00:00:00;;;;;;;;;;;;;;;-4.01;81.77;101733.47;5149844;27;1961;-60
2022/03/15 00:02:28;;;;;;;;;;;;;;;-4.07;81.38;101731.84;5149736;27;849;-60
2022/03/15 00:04:55;;;;;;;;;;;;;;;-4.14;81.29;101724.75;5149744;27;1069;-60
2022/03/15 00:07:22;;;;;;;;;;;;;;;-4.20;81.20;101719.56;5149617;27;858;-60
2022/03/15 00:09:49;;;;;;;;;;;;;;;-4.38;81.16;101712.63;5149599;27;858;-60
2022/03/15 00:12:16;;;;;;;;;;;;;;;-4.44;81.63;101711.75;5149561;27;861;-60
2022/03/15 00:14:42;;;;;;;;;;;;;;;-4.49;82.34;101711.72;5149627;27;810;-60
2022/03/15 00:17:09;;;;;;;;;;;;;;;-4.41;82.54;101710.47;5149426;27;905;-60
2022/03/15 00:19:36;;;;;;;;;;;;;;;-4.60;82.11;101715.41;5149215;27;1955;-60
2022/03/15 00:22:04;;;;;;;;;;;;;;;-4.85;82.76;101710.53;5149283;27;1031;-60
2022/03/15 00:24:30;;;;;;;;;;;;;;;-4.76;83.52;101701.75;5149272;27;918;-60
2022/03/15 00:26:58;;;;;;;;;;;;;;;-4.62;83.23;101698.66;5149299;27;850;-60
2022/03/15 00:29:25;;;;;;;;;;;;;;;-4.54;82.72;101701.69;5149699;27;929;-60
2022/03/15 00:31:51;;;;;;;;;;;;;;;-4.53;82.57;101695.22;5136270;27;826;-60
2022/03/15 00:34:18;;;;;;;;;;;;;;;-4.54;82.53;101695.50;5135318;27;928;-59
2022/03/15 00:36:45;;;;;;;;;;;;;;;-4.57;82.18;101690.59;5116956;27;879;-60
2022/03/15 00:39:11;;;;;;;;;;;;;;;-4.54;82.29;101690.09;5117043;27;1972;-60
2022/03/15 00:41:38;;;;;;;;;;;;;;;-4.55;81.86;101693.84;5135391;27;873;-60
2022/03/15 00:44:04;;;;;;;;;;;;;;;-4.57;82.60;101686.00;5117018;27;886;-60
2022/03/15 00:46:31;;;;;;;;;;;;;;;-4.44;82.46;101686.66;5135441;27;796;-60
2022/03/15 00:48:57;;;;;;;;;;;;;;;-4.43;82.12;101685.59;5135476;27;802;-59
2022/03/15 00:51:24;;;;;;;;;;;;;;;-4.53;81.88;101678.22;5135608;27;791;-60
2022/03/15 00:53:49;;;;;;;;;;;;;;;-4.60;81.82;101683.81;5135945;27;767;-60
2022/03/15 00:56:15;;;;;;;;;;;;;;;-4.68;81.96;101688.84;5134880;27;941;-60
2022/03/15 00:58:41;;;;;;;;;;;;;;;-4.81;82.24;101682.78;5099492;27;1952;-60
2022/03/15 01:01:08;;;;;;;;;;;;;;;-4.87;82.75;101678.41;5134930;27;858;-60
2022/03/15 01:03:35;;;;;;;;;;;;;;;-4.90;83.05;101683.50;5134839;27;894;-59
2022/03/15 01:06:02;;;;;;;;;;;;;;;-5.02;83.05;101676.34;5134766;27;862;-59
2022/03/15 01:08:28;;;;;;;;;;;;;;;-5.18;83.18;101677.25;5135038;27;894;-60
2022/03/15 01:10:57;;;;;;;;;;;;;;;-5.32;83.75;101674.09;5134626;27;890;-60
2022/03/15 01:13:23;;;;;;;;;;;;;;;-5.40;83.60;101675.38;5134586;27;894;-60
2022/03/15 01:15:50;;;;;;;;;;;;;;;-5.34;83.77;101676.22;5134553;27;941;-60
2022/03/15 01:18:17;;;;;;;;;;;;;;;-5.21;83.86;101675.84;5115954;27;1913;-60
2022/03/15 01:20:44;;;;;;;;;;;;;;;-5.15;83.66;101671.34;5134390;27;933;-59
2022/03/15 01:23:10;;;;;;;;;;;;;;;-5.32;83.78;101666.00;5134667;27;1004;-60
2022/03/15 01:25:37;;;;;;;;;;;;;;;-5.32;84.47;101666.00;5116274;27;869;-60
2022/03/15 01:28:06;;;;;;;;;;;;;;;-5.15;84.84;101663.25;5134273;27;916;-60
2022/03/15 01:30:33;;;;;;;;;;;;;;;-5.01;85.08;101655.59;5134214;27;918;-60
2022/03/15 01:32:59;;;;;;;;;;;;;;;-4.85;84.96;101651.19;5134267;27;802;-60
2022/03/15 01:35:26;;;;;;;;;;;;;;;-4.74;84.59;101656.44;5134188;27;887;-60
2022/03/15 01:37:51;;;;;;;;;;;;;;;-4.73;84.65;101658.06;5134164;27;846;-60
2022/03/15 01:40:20;;;;;;;;;;;;;;;-4.75;84.99;101654.78;5134131;27;1882;-59
2022/03/15 01:42:46;;;;;;;;;;;;;;;-4.76;84.96;101647.78;5132963;27;940;-58
2022/03/15 01:45:12;;;;;;;;;;;;;;;-4.63;84.89;101649.25;5133901;27;1213;-59
2022/03/15 01:47:39;;;;;;;;;;;;;;;-4.49;84.28;101643.44;5134089;27;858;-60
2022/03/15 01:50:06;;;;;;;;;;;;;;;-4.36;83.64;101646.50;5133806;27;908;-59
2022/03/15 01:52:33;;;;;;;;;;;;;;;-4.32;82.97;101646.81;5133795;27;866;-59
2022/03/15 01:54:59;;;;;;;;;;;;;;;-4.27;83.00;101651.44;5133973;27;838;-58
2022/03/15 01:57:26;;;;;;;;;;;;;;;-4.23;82.68;101644.47;5133788;27;857;-59
2022/03/15 01:59:52;;;;;;;;;;;;;;;-4.37;82.76;101638.69;5133549;27;1877;-59
2022/03/15 02:02:19;;;;;;;;;;;;;;;-4.47;82.34;101646.69;5133654;27;920;-59
2022/03/15 02:04:45;;;;;;;;;;;;;;;-4.62;82.57;101648.19;5133557;27;975;-59
2022/03/15 02:07:13;;;;;;;;;;;;;;;-4.82;82.50;101631.78;5133599;27;806;-59
2022/03/15 02:09:40;;;;;;;;;;;;;;;-4.92;82.89;101629.81;5133502;27;909;-59
2022/03/15 02:12:07;;;;;;;;;;;;;;;-4.97;83.04;101640.53;5133716;27;822;-59
2022/03/15 02:14:34;;;;;;;;;;;;;;;-4.95;83.30;101635.69;5133408;27;826;-59
2022/03/15 02:17:01;;;;;;;;;;;;;;;-4.92;83.09;101649.50;5133619;27;998;-60
2022/03/15 02:19:27;;;;;;;;;;;;;;;-5.07;82.71;101637.75;5132859;27;1971;-59
2022/03/15 02:21:57;;;;;;;;;;;;;;;-5.20;83.00;101639.75;5133161;27;930;-59
2022/03/15 02:24:23;;;;;;;;;;;;;;;-5.31;83.12;101640.69;5133238;27;862;-59
2022/03/15 02:26:52;;;;;;;;;;;;;;;-5.23;83.59;101648.31;5133081;27;906;-59
2022/03/15 02:29:20;;;;;;;;;;;;;;;-5.15;83.65;101641.69;5133147;27;910;-58
2022/03/15 02:31:46;;;;;;;;;;;;;;;-5.14;83.75;101646.84;5133091;27;932;-60
2022/03/15 02:34:12;;;;;;;;;;;;;;;-4.94;84.11;101648.13;5133220;27;838;-58
2022/03/15 02:36:39;;;;;;;;;;;;;;;-4.88;83.68;101643.59;5133172;27;862;-60
2022/03/15 02:39:05;;;;;;;;;;;;;;;-4.91;83.30;101650.31;5114488;27;1952;-60
2022/03/15 02:41:32;;;;;;;;;;;;;;;-5.04;83.29;101653.41;5132828;27;898;-59
2022/03/15 02:43:58;;;;;;;;;;;;;;;-5.18;83.25;101653.78;5114592;27;905;-59
2022/03/15 02:46:29;;;;;;;;;;;;;;;-5.31;83.17;101648.78;5132923;27;858;-60
2022/03/15 02:48:57;;;;;;;;;;;;;;;-5.34;83.46;101652.78;5132637;27;1062;-60
2022/03/15 02:51:23;;;;;;;;;;;;;;;-5.27;83.59;101654.47;5132701;27;850;-59
2022/03/15 02:53:52;;;;;;;;;;;;;;;-5.16;83.56;101656.25;5132493;27;814;-59
2022/03/15 02:56:19;;;;;;;;;;;;;;;-5.22;83.71;101655.34;5132695;27;911;-60
2022/03/15 02:58:45;;;;;;;;;;;;;;;-5.21;83.76;101656.16;5132523;27;1949;-58
2022/03/15 03:01:11;;;;;;;;;;;;;;;-5.18;83.32;101661.06;5132630;27;929;-58
2022/03/15 03:03:38;;;;;;;;;;;;;;;-5.17;83.44;101647.31;5132733;27;834;-59
2022/03/15 03:06:04;;;;;;;;;;;;;;;-5.23;83.28;101653.72;5132527;27;919;-59
2022/03/15 03:08:32;;;;;;;;;;;;;;;-5.37;82.87;101658.69;5132611;27;798;-58
2022/03/15 03:10:59;;;;;;;;;;;;;;;-5.55;83.10;101654.41;5132459;27;1228;-60
2022/03/15 03:13:26;;;;;;;;;;;;;;;-5.68;83.54;101652.06;5114185;28;1679;-59
2022/03/15 03:15:56;;;;;;;;;;;;;;;-5.78;83.56;101651.94;5114014;28;2059;-60
2022/03/15 03:18:25;;;;;;;;;;;;;;;-5.86;83.85;101642.38;5132305;28;1991;-58
2022/03/15 03:20:52;;;;;;;;;;;;;;;-5.71;84.36;101640.97;5133106;28;913;-59
2022/03/15 03:23:19;;;;;;;;;;;;;;;-5.49;84.51;101636.41;5132865;28;948;-59
2022/03/15 03:25:46;;;;;;;;;;;;;;;-5.36;84.37;101643.31;5132699;28;878;-58
2022/03/15 03:28:14;;;;;;;;;;;;;;;-5.19;84.02;101652.16;5132575;28;914;-57
2022/03/15 03:30:45;;;;;;;;;;;;;;;-5.05;83.68;101649.91;5132719;28;939;-59
2022/03/15 03:33:11;;;;;;;;;;;;;;;-4.91;83.26;101653.00;5132254;28;937;-59
2022/03/15 03:35:38;;;;;;;;;;;;;;;-4.90;82.65;101653.84;5132307;28;1174;-60
2022/03/15 03:38:05;;;;;;;;;;;;;;;-5.05;82.39;101657.97;5132257;28;925;-60
2022/03/15 03:40:32;;;;;;;;;;;;;;;-5.23;82.22;101651.00;5132169;28;1949;-59
2022/03/15 03:42:58;;;;;;;;;;;;;;;-5.36;82.78;101648.69;5132150;28;889;-59
2022/03/15 03:45:25;;;;;;;;;;;;;;;-5.45;83.03;101655.59;5132291;28;873;-59
2022/03/15 03:47:52;;;;;;;;;;;;;;;-5.52;83.02;101653.09;5132031;28;972;-59
2022/03/15 03:50:18;;;;;;;;;;;;;;;-5.63;83.25;101662.91;5132145;28;914;-59
2022/03/15 04:03:24;;;;;;;;;;;;;;;-4.34;81.70;101675.97;5039844;27;3091608;-57
2022/03/15 04:05:51;;;;;;;;;;;;;;;-4.32;81.42;101671.13;5150900;27;866;-59
2022/03/15 04:08:17;;;;;;;;;;;;;;;-4.26;81.39;101675.50;5150345;27;871;-58
2022/03/15 04:10:46;;;;;;;;;;;;;;;-4.12;80.79;101675.88;5150637;27;803;-57
2022/03/15 04:13:17;;;;;;;;;;;;;;;-4.14;80.53;101668.03;5131787;27;938;-60
2022/03/15 04:15:45;;;;;;;;;;;;;;;-4.09;80.00;101674.56;5150339;27;957;-59
2022/03/15 04:18:12;;;;;;;;;;;;;;;-4.05;79.40;101676.47;5150070;27;847;-59
2022/03/15 04:20:39;;;;;;;;;;;;;;;-4.09;79.15;101682.66;5150339;27;822;-58
2022/03/15 04:23:06;;;;;;;;;;;;;;;-4.36;79.10;101678.91;5150115;27;1905;-58
2022/03/15 04:25:33;;;;;;;;;;;;;;;-4.68;79.05;101672.66;5150122;27;1016;-59
2022/03/15 04:28:00;;;;;;;;;;;;;;;-5.00;79.34;101676.09;5150251;27;874;-59
2022/03/15 04:30:28;;;;;;;;;;;;;;;-5.27;79.63;101676.03;5150025;27;909;-59
2022/03/15 04:32:55;;;;;;;;;;;;;;;-5.50;80.40;101683.31;5150218;27;969;-59
2022/03/15 04:35:22;;;;;;;;;;;;;;;-5.64;80.93;101690.09;5149997;27;889;-59
2022/03/15 04:37:52;;;;;;;;;;;;;;;-5.65;81.45;101683.09;5149942;27;855;-59
2022/03/15 04:40:19;;;;;;;;;;;;;;;-5.59;81.70;101682.91;5132137;27;854;-60
2022/03/15 04:42:46;;;;;;;;;;;;;;;-5.38;81.70;101677.78;5150564;27;1939;-59
2022/03/15 04:45:11;;;;;;;;;;;;;;;-5.30;81.67;101679.25;5150363;27;855;-59
2022/03/15 04:47:38;;;;;;;;;;;;;;;-5.19;81.81;101671.03;5149876;27;921;-59
2022/03/15 04:50:05;;;;;;;;;;;;;;;-5.01;81.56;101671.78;5149585;27;914;-59
2022/03/15 04:52:33;;;;;;;;;;;;;;;-4.87;81.19;101658.72;5131201;27;916;-59
2022/03/15 04:54:58;;;;;;;;;;;;;;;-4.74;80.50;101661.00;5149541;27;910;-59
2022/03/15 04:57:25;;;;;;;;;;;;;;;-4.68;80.45;101648.38;5149579;27;814;-59
2022/03/15 04:59:52;;;;;;;;;;;;;;;-4.64;80.05;101650.31;5131078;27;996;-57
2022/03/15 05:02:19;;;;;;;;;;;;;;;-4.64;79.77;101644.91;5148830;27;1875;-58
2022/03/15 05:04:45;;;;;;;;;;;;;;;-4.56;79.77;101651.75;5149389;27;838;-59
2022/03/15 05:07:12;;;;;;;;;;;;;;;-4.36;79.42;101653.81;5149364;27;890;-59
2022/03/15 05:11:05;;;;;;;;;;;;;;;-4.11;79.13;101645.91;5149354;27;802;-59
2022/03/15 05:12:26;;;;;;;;;;;;;;;-3.78;78.39;101652.06;5149059;27;879;-57
2022/03/15 05:14:52;;;;;;;;;;;;;;;-3.59;77.79;101652.44;5134868;27;870;-59
2022/03/15 05:17:19;;;;;;;;;;;;;;;-3.31;77.53;101639.59;5135278;27;866;-59
2022/03/15 05:19:46;;;;;;;;;;;;;;;-2.98;76.43;101634.88;5135317;27;878;-59
2022/03/15 05:22:13;;;;;;;;;;;;;;;-2.78;75.18;101645.72;5135407;27;1906;-59
2022/03/15 05:24:40;;;;;;;;;;;;;;;-2.61;75.01;101641.97;5135116;27;937;-59
2022/03/15 05:27:06;;;;;;;;;;;;;;;-2.44;74.12;101639.00;5135085;27;875;-58
2022/03/15 05:29:32;;;;;;;;;;;;;;;-2.16;73.71;101643.06;5135099;27;985;-57
2022/03/15 05:31:58;;;;;;;;;;;;;;;-1.67;71.81;101637.03;5135050;27;905;-58
2022/03/15 05:34:24;;;;;;;;;;;;;;;-1.40;70.82;101633.16;5135084;27;873;-59
2022/03/15 05:36:52;;;;;;;;;;;;;;;-1.11;69.78;101627.88;5135227;27;819;-58
2022/03/15 05:39:19;;;;;;;;;;;;;;;-1.11;68.86;101631.41;5134892;27;913;-59
2022/03/15 05:41:46;;;;;;;;;;;;;;;-1.09;67.91;101633.81;5134793;27;1952;-59
2022/03/15 05:44:13;;;;;;;;;;;;;;;-0.87;67.22;101641.59;5134922;27;900;-59
2022/03/15 05:46:40;;;;;;;;;;;;;;;-0.68;66.37;101636.31;5134971;27;870;-58
2022/03/15 05:49:06;;;;;;;;;;;;;;;-0.65;66.12;101633.84;5134743;27;787;-59
2022/03/15 05:51:33;;;;;;;;;;;;;;;-0.83;66.82;101638.03;5134810;27;798;-59
2022/03/15 05:54:00;;;;;;;;;;;;;;;-0.92;66.99;101628.84;5134736;27;1725;-59
2022/03/15 05:56:27;;;;;;;;;;;;;;;-0.77;66.83;101624.41;5134535;27;926;-59
2022/03/15 05:58:53;;;;;;;;;;;;;;;-0.46;66.64;101619.59;5134611;27;877;-59
2022/03/15 06:01:19;;;;;;;;;;;;;;;-0.21;65.93;101618.56;5134294;27;2008;-58
2022/03/15 06:03:46;;;;;;;;;;;;;;;-0.05;65.21;101625.47;5134578;27;870;-59
2022/03/15 06:06:13;;;;;;;;;;;;;;;-0.22;65.54;101623.19;5134483;27;822;-59
2022/03/15 06:08:38;;;;;;;;;;;;;;;-0.03;65.94;101622.47;5134719;27;819;-59
2022/03/15 06:11:05;;;;;;;;;;;;;;;0.41;65.35;101632.38;5134333;27;857;-59
2022/03/15 06:13:31;;;;;;;;;;;;;;;0.96;64.60;101629.25;5134381;27;802;-59
2022/03/15 06:15:58;;;;;;;;;;;;;;;1.29;64.07;101629.34;5134086;27;1656;-59
2022/03/15 06:18:25;;;;;;;;;;;;;;;1.23;63.22;101623.94;5134156;27;985;-59
2022/03/15 06:20:51;;;;;;;;;;;;;;;1.28;63.67;101628.53;5134033;27;905;-59
2022/03/15 06:23:18;;;;;;;;;;;;;;;1.60;63.62;101625.03;5133979;27;1956;-58
2022/03/15 06:25:45;;;;;;;;;;;;;;;1.96;63.38;101626.34;5132942;27;961;-59
2022/03/15 06:28:12;;;;;;;;;;;;;;;2.35;61.80;101630.56;5133958;27;886;-59
2022/03/15 06:30:39;;;;;;;;;;;;;;;2.30;61.43;101630.66;5133881;27;941;-59
2022/03/15 06:33:06;;;;;;;;;;;;;;;2.12;62.09;101638.63;5133757;27;889;-59
2022/03/15 06:35:33;;;;;;;;;;;;;;;2.08;62.22;101636.78;5133823;27;847;-58
2022/03/15 06:38:01;;;;;;;;;;;;;;;2.16;62.43;101636.09;5115418;27;843;-59
2022/03/15 06:40:29;;;;;;;;;;;;;;;2.34;61.58;101639.84;5115359;27;1185;-59
2022/03/15 06:42:56;;;;;;;;;;;;;;;2.45;61.03;101628.44;5133540;27;1889;-59
2022/03/15 06:45:22;;;;;;;;;;;;;;;2.66;60.53;101631.56;5133535;27;868;-57
2022/03/15 06:47:49;;;;;;;;;;;;;;;2.80;60.52;101630.75;5133517;27;910;-58
2022/03/15 06:50:14;;;;;;;;;;;;;;;3.11;59.87;101628.16;5133630;27;894;-58
2022/03/15 06:52:42;;;;;;;;;;;;;;;3.23;58.75;101627.63;5133424;27;874;-58
2022/03/15 06:55:09;;;;;;;;;;;;;;;3.24;58.58;101637.44;5133364;27;852;-59
2022/03/15 06:57:36;;;;;;;;;;;;;;;3.45;59.03;101637.78;5133437;27;1737;-59
2022/03/15 07:00:04;;;;;;;;;;;;;;;3.87;56.93;101646.63;5133389;27;909;-59
2022/03/15 07:02:31;;;;;;;;;;;;;;;3.93;55.65;101639.91;5132995;27;1933;-59
2022/03/15 07:04:57;;;;;;;;;;;;;;;3.98;54.61;101645.25;5133231;27;829;-59
2022/03/15 07:07:24;;;;;;;;;;;;;;;4.18;54.48;101648.56;5133140;27;937;-60
2022/03/15 07:09:50;;;;;;;;;;;;;;;4.66;54.36;101643.13;5133453;27;862;-59
2022/03/15 07:12:17;;;;;;;;;;;;;;;4.88;54.03;101646.91;5133067;27;932;-59
2022/03/15 07:14:45;;;;;;;;;;;;;;;4.86;53.84;101647.22;5132906;27;937;-58
2022/03/15 07:17:12;;;;;;;;;;;;;;;5.27;53.42;101661.63;5132963;27;878;-58
2022/03/15 07:19:38;;;;;;;;;;;;;;;5.48;52.94;101645.34;5133229;27;862;-59
2022/03/15 07:22:08;;;;;;;;;;;;;;;5.31;52.35;101651.66;5132785;27;1961;-59
2022/03/15 07:24:35;;;;;;;;;;;;;;;5.07;52.28;101652.09;5132935;27;918;-58
2022/03/15 07:27:02;;;;;;;;;;;;;;;4.81;51.73;101665.75;5114418;27;1075;-59
2022/03/15 07:29:28;;;;;;;;;;;;;;;5.22;51.75;101668.09;5132925;27;799;-59
2022/03/15 07:31:54;;;;;;;;;;;;;;;5.45;49.65;101667.97;5132798;27;827;-59
2022/03/15 07:34:21;;;;;;;;;;;;;;;5.56;49.66;101651.97;5132696;27;917;-59
2022/03/15 07:36:48;;;;;;;;;;;;;;;5.84;50.63;101649.69;5132376;27;914;-59
2022/03/15 07:39:14;;;;;;;;;;;;;;;6.37;49.70;101648.47;5132795;27;814;-59
2022/03/15 07:41:42;;;;;;;;;;;;;;;6.78;49.82;101657.16;5132664;27;1964;-59
2022/03/15 07:44:09;;;;;;;;;;;;;;;6.81;49.15;101659.28;5132486;27;924;-59
2022/03/15 07:46:37;;;;;;;;;;;;;;;6.70;48.53;101656.91;5132531;27;901;-59
2022/03/15 07:49:04;;;;;;;;;;;;;;;6.79;47.65;101648.59;5132447;27;855;-57
2022/03/15 07:51:30;;;;;;;;;;;;;;;6.54;48.31;101656.63;5132705;27;889;-59
2022/03/15 07:53:56;;;;;;;;;;;;;;;6.72;48.61;101654.63;5132536;27;814;-59
2022/03/15 07:56:23;;;;;;;;;;;;;;;6.98;48.97;101639.09;5132462;27;918;-59
2022/03/15 07:58:50;;;;;;;;;;;;;;;6.98;49.58;101648.19;5132466;27;838;-59
2022/03/15 08:01:16;;;;;;;;;;;;;;;7.07;49.50;101643.41;5131961;28;1913;-59
2022/03/15 08:03:43;;;;;;;;;;;;;;;7.31;47.43;101636.44;5132369;28;842;-59
2022/03/15 08:06:09;;;;;;;;;;;;;;;7.28;47.63;101637.13;5132352;28;891;-59
2022/03/15 08:08:36;;;;;;;;;;;;;;;7.42;47.13;101632.16;5132401;28;861;-59
2022/03/15 08:11:06;;;;;;;;;;;;;;;7.35;49.52;101637.38;5114054;28;985;-60
2022/03/15 08:13:34;;;;;;;;;;;;;;;7.51;47.88;101627.41;5132131;28;937;-59
2022/03/15 08:16:02;;;;;;;;;;;;;;;7.67;48.57;101619.31;5132296;28;1052;-60
2022/03/15 08:18:28;;;;;;;;;;;;;;;8.27;46.75;101611.53;5132205;28;929;-60
2022/03/15 08:20:55;;;;;;;;;;;;;;;8.45;45.94;101612.16;5132321;28;854;-59
2022/03/15 08:23:23;;;;;;;;;;;;;;;8.33;44.50;101609.38;5132057;28;1885;-60
2022/03/15 08:25:49;;;;;;;;;;;;;;;8.22;46.26;101609.00;5132274;28;795;-59
2022/03/15 08:28:15;;;;;;;;;;;;;;;8.54;44.96;101598.28;5132450;28;822;-60
2022/03/15 08:30:41;;;;;;;;;;;;;;;8.57;44.80;101598.38;5132073;28;953;-60
2022/03/15 08:33:08;;;;;;;;;;;;;;;8.71;44.52;101591.72;5132264;28;865;-60
2022/03/15 08:35:34;;;;;;;;;;;;;;;8.58;43.96;101605.50;5132203;28;791;-60
2022/03/15 08:38:01;;;;;;;;;;;;;;;8.36;44.32;101598.47;5132014;28;922;-60
2022/03/15 08:40:27;;;;;;;;;;;;;;;8.41;44.51;101602.16;5132109;28;878;-59
2022/03/15 08:42:54;;;;;;;;;;;;;;;8.64;43.65;101595.06;5131784;28;1889;-59
2022/03/15 08:45:21;;;;;;;;;;;;;;;8.58;43.72;101596.44;5132132;28;885;-59
2022/03/15 08:47:47;;;;;;;;;;;;;;;8.46;44.58;101596.44;5113723;28;2518;-60
2022/03/15 08:50:14;;;;;;;;;;;;;;;8.49;43.39;101585.53;5135883;27;1116;-59
2022/03/15 08:52:40;;;;;;;;;;;;;;;8.62;44.54;101582.75;5136149;27;790;-59
2022/03/15 08:55:06;;;;;;;;;;;;;;;8.53;45.41;101588.38;5136033;27;893;-59
2022/03/15 08:57:32;;;;;;;;;;;;;;;8.62;46.04;101585.50;5135866;27;1342;-59
2022/03/15 08:59:59;;;;;;;;;;;;;;;8.68;45.67;101586.88;5135961;27;847;-59
2022/03/15 09:02:25;;;;;;;;;;;;;;;8.93;44.61;101588.44;5135265;27;1972;-59
2022/03/15 09:04:52;;;;;;;;;;;;;;;8.97;44.19;101589.38;5135758;27;799;-59
2022/03/15 09:07:18;;;;;;;;;;;;;;;8.98;43.84;101590.16;5135572;27;787;-58
2022/03/15 09:09:45;;;;;;;;;;;;;;;9.30;43.65;101582.84;5135913;27;854;-60
2022/03/15 09:12:11;;;;;;;;;;;;;;;9.45;41.57;101581.28;5135447;27;823;-59
2022/03/15 09:14:38;;;;;;;;;;;;;;;9.32;42.66;101582.50;5135433;27;870;-60
2022/03/15 09:17:06;;;;;;;;;;;;;;;9.34;43.11;101577.41;5135420;27;834;-60
2022/03/15 09:19:32;;;;;;;;;;;;;;;9.43;42.54;101577.28;5135377;27;849;-59
2022/03/15 09:22:02;;;;;;;;;;;;;;;9.47;41.99;101578.97;5135464;27;1956;-59
2022/03/15 09:24:30;;;;;;;;;;;;;;;9.78;42.14;101572.72;5135517;27;925;-60
2022/03/15 09:26:57;;;;;;;;;;;;;;;9.81;41.45;101561.00;5135545;27;886;-59
2022/03/15 09:29:24;;;;;;;;;;;;;;;9.90;41.93;101541.50;5116839;27;1221;-59
2022/03/15 09:31:50;;;;;;;;;;;;;;;10.01;40.99;101536.22;5117222;27;846;-59
2022/03/15 09:34:18;;;;;;;;;;;;;;;10.07;40.00;101534.81;5135021;27;865;-59
2022/03/15 09:36:44;;;;;;;;;;;;;;;10.15;40.39;101538.53;5135042;27;946;-59
2022/03/15 09:39:11;;;;;;;;;;;;;;;9.97;39.58;101527.06;5134999;27;790;-60
2022/03/15 09:41:39;;;;;;;;;;;;;;;10.10;40.22;101520.25;5134748;27;940;-59
2022/03/15 09:44:09;;;;;;;;;;;;;;;10.30;40.88;101525.88;5135202;27;875;-60
2022/03/15 09:46:42;;;;;;;;;;;;;;;10.47;39.30;101516.41;5134802;27;938;-59
2022/03/15 09:49:12;;;;;;;;;;;;;;;10.38;39.67;101514.63;5134796;27;862;-61
2022/03/15 09:51:39;;;;;;;;;;;;;;;10.55;39.57;101516.22;5116423;27;1937;-59
2022/03/15 09:54:06;;;;;;;;;;;;;;;10.77;37.81;101506.41;5134600;27;921;-59
2022/03/15 09:56:38;;;;;;;;;;;;;;;10.88;39.30;101495.59;5134868;27;914;-59
2022/03/15 09:59:14;;;;;;;;;;;;;;;10.85;39.72;101495.53;5134478;27;921;-59
2022/03/15 10:01:42;;;;;;;;;;;;;;;10.92;38.83;101501.97;5134313;27;1211;-59
2022/03/15 10:04:09;;;;;;;;;;;;;;;11.03;39.23;101486.44;5134543;27;972;-59
2022/03/15 10:06:39;;;;;;;;;;;;;;;11.32;38.70;101486.19;5134573;27;881;-57
2022/03/15 10:09:06;;;;;;;;;;;;;;;11.32;36.60;101480.63;5134337;27;906;-60
2022/03/15 10:11:32;;;;;;;;;;;;;;;11.51;36.76;101480.59;5116010;27;1976;-59
2022/03/15 10:13:59;;;;;;;;;;;;;;;11.29;37.07;101476.66;5134237;27;894;-59
2022/03/15 10:16:30;;;;;;;;;;;;;;;11.21;38.28;101483.19;5134161;27;839;-59
2022/03/15 10:19:00;;;;;;;;;;;;;;;11.48;36.12;101473.03;5134460;27;881;-59
2022/03/15 10:21:40;;;;;;;;;;;;;;;11.68;36.36;101473.78;5134154;27;878;-59
2022/03/15 10:24:10;;;;;;;;;;;;;;;11.34;37.04;101468.03;5134087;27;865;-60
2022/03/15 10:26:40;;;;;;;;;;;;;;;11.39;36.26;101459.44;5134105;27;1026;-59
2022/03/15 10:29:11;;;;;;;;;;;;;;;11.64;39.46;101459.06;5133902;27;871;-59
2022/03/15 10:31:38;;;;;;;;;;;;;;;11.72;35.68;101454.44;5133781;27;1885;-59
2022/03/15 10:34:07;;;;;;;;;;;;;;;11.70;36.05;101454.03;5133902;27;1044;-59
2022/03/15 10:36:37;;;;;;;;;;;;;;;11.89;34.68;101458.72;5133831;27;1112;-59
2022/03/15 10:39:04;;;;;;;;;;;;;;;12.03;37.92;101453.38;5134043;27;882;-59
2022/03/15 10:41:30;;;;;;;;;;;;;;;12.03;36.17;101451.44;5133828;27;1179;-59
2022/03/15 10:43:57;;;;;;;;;;;;;;;12.21;35.85;101445.34;5133767;27;922;-59
2022/03/15 10:46:25;;;;;;;;;;;;;;;12.37;34.98;101443.19;5133987;27;850;-59
2022/03/15 10:48:59;;;;;;;;;;;;;;;12.38;35.71;101430.16;5134182;27;835;-59
2022/03/15 10:51:26;;;;;;;;;;;;;;;11.97;34.82;101433.53;5133663;27;1944;-59
2022/03/15 10:54:00;;;;;;;;;;;;;;;12.22;34.75;101424.75;5133440;27;864;-60
2022/03/15 10:56:27;;;;;;;;;;;;;;;12.32;34.10;101418.56;5133381;27;973;-59
2022/03/15 10:58:55;;;;;;;;;;;;;;;12.18;35.44;101415.59;5133426;27;822;-59
2022/03/15 11:01:24;;;;;;;;;;;;;;;12.54;34.95;101403.00;5132991;27;1200;-60
2022/03/15 11:03:53;;;;;;;;;;;;;;;12.76;33.73;101404.09;5133290;27;1112;-59
2022/03/15 11:06:43;;;;;;;;;;;;;;;12.60;34.25;101395.94;5133227;27;933;-59
2022/03/15 11:09:25;;;;;;;;;;;;;;;12.54;35.71;101393.91;5133518;27;829;-60
2022/03/15 11:12:06;;;;;;;;;;;;;;;12.56;34.21;101388.78;5132559;27;1906;-60
2022/03/15 11:14:42;;;;;;;;;;;;;;;12.31;36.21;101392.03;5133036;27;870;-60
2022/03/15 11:17:09;;;;;;;;;;;;;;;12.38;34.25;101383.00;5133143;27;918;-59
2022/03/15 11:19:38;;;;;;;;;;;;;;;12.45;35.92;101366.44;5133017;27;850;-60
2022/03/15 11:22:05;;;;;;;;;;;;;;;12.71;35.02;101373.09;5133115;27;858;-60
2022/03/15 11:24:37;;;;;;;;;;;;;;;12.80;33.53;101366.09;5132866;27;1188;-59
2022/03/15 11:27:04;;;;;;;;;;;;;;;12.82;34.11;101362.91;5133002;27;795;-60
2022/03/15 11:29:32;;;;;;;;;;;;;;;13.01;34.22;101359.13;5132986;27;889;-60
2022/03/15 11:31:59;;;;;;;;;;;;;;;13.43;32.46;101355.19;5114519;27;1885;-59
2022/03/15 11:34:26;;;;;;;;;;;;;;;13.77;32.20;101360.63;5132795;27;1047;-59
2022/03/15 11:36:53;;;;;;;;;;;;;;;13.78;31.69;101351.88;5132797;27;1128;-59
2022/03/15 11:39:20;;;;;;;;;;;;;;;13.56;33.17;101347.34;5132664;27;1691;-59
2022/03/15 11:41:47;;;;;;;;;;;;;;;13.67;31.54;101349.00;5132579;27;859;-59
2022/03/15 11:44:19;;;;;;;;;;;;;;;13.58;33.23;101337.44;5114216;27;753;-59
2022/03/15 11:46:54;;;;;;;;;;;;;;;13.42;32.83;101334.97;5132586;27;960;-59
2022/03/15 11:49:41;;;;;;;;;;;;;;;13.04;32.90;101334.22;5132585;27;858;-60
2022/03/15 11:52:10;;;;;;;;;;;;;;;13.20;33.13;101328.38;5132368;27;1874;-59
2022/03/15 11:55:03;;;;;;;;;;;;;;;13.42;33.20;101331.38;5132454;27;864;-59
2022/03/15 11:57:53;;;;;;;;;;;;;;;14.29;32.26;101320.41;5129037;27;1272;-59
2022/03/15 12:00:30;;;;;;;;;;;;;;;14.64;30.69;101305.03;5121805;27;1629;-59
2022/03/15 12:02:57;;;;;;;;;;;;;;;13.87;31.78;101319.00;5131985;28;1231;-59
2022/03/15 12:05:25;;;;;;;;;;;;;;;13.86;32.25;101314.59;5132333;28;961;-59
2022/03/15 12:08:15;;;;;;;;;;;;;;;14.27;32.17;101308.88;5132412;28;962;-59
2022/03/15 12:10:53;;;;;;;;;;;;;;;14.09;31.06;101306.00;5132191;28;925;-60
2022/03/15 12:13:20;;;;;;;;;;;;;;;14.37;31.68;101307.28;5132202;28;1965;-59
2022/03/15 12:15:50;;;;;;;;;;;;;;;14.56;29.84;101297.06;5132689;28;822;-59
2022/03/15 12:21:05;;;;;;;;;;;;;;;14.13;30.42;101291.31;5132326;28;665;-59
2022/03/15 12:23:44;;;;;;;;;;;;;;;14.01;30.66;101287.69;5133215;27;935;-60
2022/03/15 12:26:37;;;;;;;;;;;;;;;13.96;31.68;101293.63;5136517;27;921;-59
2022/03/15 12:29:07;;;;;;;;;;;;;;;14.14;30.87;101284.56;5132900;27;1159;-60
2022/03/15 12:31:40;;;;;;;;;;;;;;;14.52;30.57;101280.31;5136148;27;1885;-59
2022/03/15 12:34:08;;;;;;;;;;;;;;;14.68;30.69;101278.00;5136609;27;814;-59
2022/03/15 12:36:40;;;;;;;;;;;;;;;14.91;31.04;101285.19;5136148;27;932;-60
2022/03/15 12:39:10;;;;;;;;;;;;;;;15.27;29.36;101280.41;5136890;27;814;-60
2022/03/15 12:41:37;;;;;;;;;;;;;;;15.50;29.43;101280.00;5136173;27;972;-60
2022/03/15 12:44:04;;;;;;;;;;;;;;;15.23;28.48;101268.47;5136073;27;937;-60
2022/03/15 12:46:30;;;;;;;;;;;;;;;14.76;26.44;101278.78;5136017;27;882;-60
2022/03/15 12:49:05;;;;;;;;;;;;;;;14.53;27.03;101281.94;5135928;27;910;-60
2022/03/15 12:51:37;;;;;;;;;;;;;;;14.67;26.65;101270.84;5135796;27;1897;-60
2022/03/15 12:54:04;;;;;;;;;;;;;;;15.01;27.80;101269.69;5135754;27;914;-60
2022/03/15 12:56:31;;;;;;;;;;;;;;;15.39;27.21;101268.06;5135813;27;1060;-60
2022/03/15 12:58:58;;;;;;;;;;;;;;;14.88;25.52;101274.84;5135781;27;897;-60
2022/03/15 13:01:25;;;;;;;;;;;;;;;15.01;26.15;101266.91;5135403;27;1098;-59
2022/03/15 13:03:53;;;;;;;;;;;;;;;15.25;26.18;101260.50;5135616;27;902;-59
2022/03/15 13:06:21;;;;;;;;;;;;;;;15.33;25.65;101258.53;5135754;27;866;-60
2022/03/15 13:08:59;;;;;;;;;;;;;;;15.04;25.69;101260.53;5117355;27;890;-59
2022/03/15 13:11:28;;;;;;;;;;;;;;;14.48;26.43;101263.59;5135358;27;1971;-60
2022/03/15 13:13:54;;;;;;;;;;;;;;;14.60;26.97;101264.47;5135645;27;846;-59